world map with IEG marked

IEG - Airport

This information may not be accurate or current and is not valid for navigation or flight planning. No warranty of fitness for any purpose is made or implied.

flag of Lubuskieflag of Poland

Donate via PayPal

Additional information is available on the NEW Great Circle Mapper

Location
City:  Zielona Góra, Lubuskie, Poland
Name:Zielona Góra-Babimost Airport
ICAO / IATA:EPZG / IEG

Details
Type:Airport (Aerodrome, Airfield)
Latitude:52°08'19"N (52.138517)
Longitude:15°47'55"E (15.798556)
Datum:WGS 1984
Elevation:194 ft (59 m)
Runways:1
Longest:8202 × 197 ft (2500 × 60 m)

Time
Timezone:UTC+1 (DST+4)
Local Time:

Weather
METAR:EPZG  041400Z 22009KT 9999 OVC009 01/00 Q1030
TAF:EPZG  (expired)

Related Locations
Nearby:
Farthest:CHT: 11627 mi / 18713 km
Waitangi [Tuuta], CIT, NZ

Find:

   beyond  
but within

Other Information
Maps:
Sources:

  


 


Great Circle Mapper   Great Circle Mapper
Great Circle Mapper FAQ   Great Circle Mapper FAQ
  Karl's Home Page
KLS˛   KLS˛ Home
   GC on Facebook
Airlines of the World   Airlines of the World
Donate via PayPal


Copyright © 2004-2020, Karl L. Swartz. All rights reserved.
All trademarks mentioned herein belong to their respective owners.

Please see credits for attribution and copyright information.

Karl Swartz <karl@kls2.com>
  Powered by FreeBSD
Valid HTML 4.01!
Labeled with ICRA
hCard Microformat
Geo Microformat